Latest Weather Observations for Wilcannia Airport

IDN60801

Issued at 2:32 pm EST Wednesday 29 July 2015 (issued every 30 minutes, with the page automatically refreshed every 10 minutes)

About weather observations | Map of weather stations | Latest weather observations for NSW | Other Formats
Station Details ID: 046012 Name: WILCANNIA AERODROME AWS Lat: -31.52 Lon: 143.38 Height: 94.3 m
Data from the previous 72 hours. | See also: Recent months for locations in New South Wales
Date/Time
EST
Temp
°C
App
Temp
°C
Dew
Point
Rel
Hum
%
Delta-T
°C
Wind Press
QNH
hPa
Press
MSL
hPa
Rain
since 9 am
mm
Dir
 
Spd
km/h
Gust
km/h
Spd
kts
Gust
kts
29/02:30pm 14.0 11.3 2.6 46 5.0 NW 6 9 3 5 1030.4 1030.5 0.0
29/02:00pm 14.3 11.0 2.5 45 5.2 E 9 17 5 9 1030.4 1030.5 0.0
29/01:30pm 14.1 11.0 3.6 49 4.8 E 9 17 5 9 1031.0 1031.1 0.0
29/01:00pm 13.2 9.8 2.1 47 4.8 NE 9 19 5 10 1032.0 1032.2 0.0
29/12:30pm 13.3 10.5 3.1 50 4.6 E 7 13 4 7 1032.6 1032.8 0.0
29/12:00pm 12.4 9.1 4.4 58 3.6 NE 11 17 6 9 1032.6 1032.8 0.0
29/11:30am 11.9 8.1 3.9 58 3.6 NE 13 20 7 11 1033.1 1033.3 0.0
29/11:00am 11.6 7.4 3.6 58 3.5 NE 15 20 8 11 1033.6 1033.8 0.0
29/10:30am 10.7 6.4 3.5 61 3.2 NE 15 19 8 10 1034.1 1034.3 0.0
29/10:00am 9.5 5.7 3.7 67 2.5 ENE 13 19 7 10 1034.2 1034.4 0.0
29/09:30am 7.1 3.9 3.3 77 1.6 ENE 9 13 5 7 1034.5 1034.7 0.0
29/09:00am 6.4 3.2 3.2 80 1.3 ENE 9 11 5 6 1034.4 1034.6 0.0
29/08:30am 5.6 2.5 3.4 86 0.9 ENE 9 11 5 6 1034.1 1034.3 0.0
29/08:00am 3.9 0.0 3.2 95 0.3 NE 13 13 7 7 1033.9 1034.1 0.0
29/07:30am 1.2 -2.4 0.5 95 0.3 ENE 9 11 5 6 1033.7 1033.9 0.0
29/07:00am -0.2 -4.0 -1.0 94 0.3 ENE 9 9 5 5 1033.4 1033.6 0.0
29/06:30am 0.1 -3.7 -0.7 94 0.3 ENE 9 11 5 6 1033.2 1033.4 0.0
29/06:00am -0.1 -3.5 -0.9 94 0.3 ENE 7 9 4 5 1032.8 1033.0 0.0
29/05:30am 0.0 -3.4 -0.8 94 0.3 E 7 9 4 5 1032.7 1032.9 0.0
29/05:00am -0.4 -3.7 -1.2 94 0.3 E 6 6 3 3 1033.0 1033.2 0.0
29/04:30am -0.5 -3.8 -1.5 93 0.3 E 6 7 3 4 1033.3 1033.5 0.0
29/04:00am -0.7 -4.1 -2.1 90 0.4 E 6 7 3 4 1033.5 1033.7 0.0
29/03:30am -0.3 -3.7 -1.9 89 0.5 E 6 7 3 4 1033.5 1033.7 0.0
29/03:00am 0.3 -3.0 -1.1 90 0.5 E 6 9 3 5 1033.5 1033.7 0.0
29/02:30am 0.7 -2.8 -1.1 88 0.6 E 7 9 4 5 1033.8 1034.0 0.0
29/02:00am 1.3 -2.1 -0.6 87 0.7 E 7 9 4 5 1033.9 1034.1 0.0
29/01:30am 1.7 -2.1 -1.0 82 1.0 E 9 11 5 6 1033.8 1034.0 0.0
29/01:00am 3.0 -0.6 0.4 83 1.0 ESE 9 11 5 6 1034.0 1034.2 0.0
29/12:30am 3.8 0.0 1.5 85 0.9 ESE 11 11 6 6 1034.0 1034.2 0.0
29/12:00am 3.0 -1.0 0.6 84 0.9 SE 11 13 6 7 1034.4 1034.6 0.0
 
Date/Time
EST
Temp
°C
App
Temp
°C
Dew
Point
Rel
Hum
%
Delta-T
°C
Wind Press
QNH
hPa
Press
MSL
hPa
Rain
since 9 am
mm
Dir
 
Spd
km/h
Gust
km/h
Spd
kts
Gust
kts
28/11:30pm 3.4 -0.2 0.6 82 1.1 SE 9 11 5 6 1034.8 1035.0 0.0
28/11:00pm 3.6 -0.4 0.7 81 1.1 SSE 11 13 6 7 1034.7 1034.9 0.0
28/10:30pm 3.7 -0.3 0.4 79 1.3 SSE 11 13 6 7 1035.0 1035.1 0.0
28/10:00pm 4.9 1.3 0.7 74 1.6 SSE 9 11 5 6 1035.2 1035.3 0.0
28/09:30pm 6.3 2.5 2.0 74 1.8 SSE 11 13 6 7 1035.3 1035.4 0.0
28/09:00pm 6.3 2.4 1.4 71 1.9 SSE 11 13 6 7 1035.0 1035.1 0.0
28/08:30pm 6.9 3.0 1.4 68 2.2 SSE 11 13 6 7 1034.8 1035.0 0.0
28/08:00pm 7.9 3.8 2.0 66 2.4 SSE 13 13 7 7 1034.6 1034.8 0.0
28/07:30pm 9.4 5.3 2.3 61 3.0 SSE 13 17 7 9 1034.4 1034.6 0.0
28/07:00pm 10.1 6.1 2.7 60 3.2 SSE 13 17 7 9 1034.2 1034.4 0.0
28/06:30pm 10.9 7.0 3.5 60 3.3 SSE 13 19 7 10 1034.1 1034.3 0.0
28/06:00pm 10.9 7.6 2.7 57 3.5 SSE 9 11 5 6 1034.1 1034.3 0.0
28/05:30pm 11.9 8.7 2.9 54 4.0 SSE 9 15 5 8 1033.9 1034.1 0.0
28/05:00pm 13.5 9.4 2.4 47 4.8 SSE 13 19 7 10 1033.9 1034.1 0.0
28/04:30pm 14.0 10.7 2.6 46 5.1 SSE 9 15 5 8 1033.7 1033.9 0.0
28/04:00pm 14.0 9.9 2.3 45 5.1 SE 13 20 7 11 1034.0 1034.2 0.0
28/03:30pm 14.2 9.8 2.8 46 5.1 S 15 22 8 12 1034.0 1034.2 0.0
28/03:00pm 14.0 9.5 2.3 45 5.1 SE 15 22 8 12 1034.1 1034.3 0.0
28/02:30pm 14.0 10.4 2.9 47 5.0 SE 11 17 6 9 1034.0 1034.2 0.0
28/02:00pm 13.8 9.7 2.4 46 5.0 S 13 22 7 12 1034.4 1034.6 0.0
28/01:30pm 13.5 9.1 2.7 48 4.8 SSW 15 22 8 12 1035.1 1035.2 0.0
28/01:00pm 13.9 9.9 2.8 47 4.9 SE 13 22 7 12 1035.8 1035.9 0.0
28/12:30pm 13.8 9.9 3.3 49 4.7 S 13 20 7 11 1036.5 1036.6 0.0
28/12:00pm 13.3 8.5 2.5 48 4.7 SSE 17 20 9 11 1037.2 1037.3 0.0
28/11:30am 12.6 8.4 1.9 48 4.6 SE 13 20 7 11 1037.6 1037.7 0.0
28/11:00am 12.7 8.7 2.8 51 4.3 SE 13 20 7 11 1038.1 1038.2 0.0
28/10:30am 12.3 8.2 2.5 51 4.3 SSE 13 20 7 11 1038.3 1038.4 0.0
28/10:00am 10.9 7.3 3.2 59 3.3 S 11 15 6 8 1038.2 1038.3 0.0
28/09:30am 8.4 4.8 3.1 69 2.3 SSW 11 13 6 7 1038.3 1038.4 0.0
28/09:00am 6.0 2.8 2.8 80 1.3 SW 9 11 5 6 1037.9 1038.0 0.0
28/08:30am 3.5 0.5 1.7 88 0.7 WSW 7 11 4 6 1037.5 1037.6 0.0
28/08:00am 1.4 -2.2 0.4 93 0.4 WSW 9 11 5 6 1037.2 1037.3 0.0
28/07:30am -0.2 -4.1 -1.2 93 0.3 WSW 9 11 5 6 1036.9 1037.0 0.0
28/07:00am 0.0 -3.8 -1.1 92 0.4 WSW 9 11 5 6 1036.7 1036.8 0.0
28/06:30am 0.2 -4.0 -0.9 92 0.4 WSW 11 13 6 7 1036.4 1036.5 0.0
28/06:00am 0.3 -3.5 -1.0 91 0.5 WSW 9 11 5 6 1035.9 1036.0 0.0
28/05:30am 0.4 -3.4 -0.9 91 0.5 SW 9 11 5 6 1035.8 1035.9 0.0
28/05:00am 0.4 -3.4 -0.9 91 0.5 SW 9 11 5 6 1035.5 1035.6 0.0
28/04:30am 0.2 -3.6 -0.8 93 0.4 SW 9 11 5 6 1035.4 1035.5 0.0
28/04:00am -0.7 -4.2 -2.7 86 0.6 WSW 6 7 3 4 1035.4 1035.5 0.0
28/03:30am 0.7 -2.7 -0.9 89 0.6 WSW 7 9 4 5 1035.5 1035.6 0.0
28/03:00am 1.0 -2.4 -0.6 89 0.6 SW 7 9 4 5 1035.6 1035.7 0.0
28/02:30am 1.1 -2.4 -1.0 86 0.7 SW 7 7 4 4 1035.4 1035.5 0.0
28/02:00am 1.8 -1.6 -0.4 85 0.8 SW 7 9 4 5 1035.4 1035.5 0.0
28/01:30am 2.0 -1.8 -0.6 83 0.9 SSW 9 9 5 5 1035.3 1035.4 0.0
28/01:00am 2.1 -1.7 -0.6 82 1.0 SW 9 9 5 5 1035.1 1035.2 0.0
28/12:30am 2.1 -1.3 -0.6 82 1.0 SW 7 9 4 5 1035.4 1035.5 0.0
28/12:00am 2.9 -1.2 0.0 81 1.1 WSW 11 13 6 7 1035.4 1035.5 0.0
 
Date/Time
EST
Temp
°C
App
Temp
°C
Dew
Point
Rel
Hum
%
Delta-T
°C
Wind Press
QNH
hPa
Press
MSL
hPa
Rain
since 9 am
mm
Dir
 
Spd
km/h
Gust
km/h
Spd
kts
Gust
kts
27/11:30pm 2.8 -1.3 0.0 82 1.0 WSW 11 13 6 7 1035.6 1035.7 0.0
27/11:00pm 2.8 -1.3 -0.1 81 1.1 WSW 11 13 6 7 1035.6 1035.7 0.0
27/10:30pm 3.2 -0.4 0.3 81 1.1 SSW 9 9 5 5 1035.5 1035.6 0.0
27/10:00pm 2.4 -1.0 -0.5 81 1.0 SSE 7 9 4 5 1035.5 1035.6 0.0
27/09:30pm 2.4 -1.8 -0.7 80 1.1 SSE 11 11 6 6 1035.2 1035.3 0.0
27/09:00pm 3.1 -0.7 -0.9 75 1.4 SSE 9 9 5 5 1035.1 1035.2 0.0
27/08:30pm 3.6 -0.2 -1.0 72 1.7 SSE 9 11 5 6 1034.8 1035.0 0.0
27/08:00pm 4.2 0.0 -1.2 68 2.0 SSE 11 11 6 6 1034.6 1034.8 0.0
27/07:30pm 5.9 1.7 -0.6 63 2.5 S 11 13 6 7 1034.3 1034.5 0.0
27/07:00pm 6.8 2.7 -0.4 60 2.7 S 11 13 6 7 1033.7 1033.9 0.0
27/06:30pm 8.1 4.0 -0.4 55 3.3 S 11 13 6 7 1033.5 1033.7 0.0
27/06:00pm 9.7 5.6 -0.2 50 3.9 S 11 15 6 8 1033.1 1033.3 0.0
27/05:30pm 11.5 7.0 -0.3 44 4.8 S 13 20 7 11 1032.6 1032.8 0.0
27/05:00pm 12.6 7.3 -0.6 40 5.3 S 17 22 9 12 1032.3 1032.5 0.0
27/04:30pm 13.0 7.4 -0.3 40 5.5 S 19 26 10 14 1032.1 1032.3 0.0
27/04:00pm 13.3 8.4 -0.3 39 5.6 SSE 15 24 8 13 1031.9 1032.1 0.0
27/03:30pm 13.6 8.4 -0.1 39 5.7 SSE 17 22 9 12 1032.1 1032.3 0.0
27/03:00pm 13.4 8.2 0.4 41 5.4 SSE 17 24 9 13 1032.0 1032.2 0.0
27/02:30pm 13.2 7.7 0.9 43 5.2 S 19 28 10 15 1032.2 1032.4 0.0
27/02:00pm 13.2 8.1 0.6 42 5.3 S 17 24 9 13 1032.4 1032.6 0.0
27/01:30pm 12.7 6.9 0.1 42 5.2 SSW 20 28 11 15 1032.6 1032.8 0.0
27/01:00pm 12.4 7.4 1.4 47 4.6 SSW 17 28 9 15 1032.9 1033.1 0.0
27/12:30pm 12.1 6.6 2.0 50 4.4 S 20 30 11 16 1033.4 1033.6 0.0
27/12:00pm 11.5 5.3 2.3 53 3.9 S 24 32 13 17 1033.8 1034.0 0.0
27/11:30am 11.3 6.0 3.1 57 3.6 SSW 20 30 11 16 1034.1 1034.3 0.0
27/11:00am 10.5 4.8 3.1 60 3.2 SSW 22 32 12 17 1034.2 1034.4 0.0
27/10:30am 9.9 4.9 3.6 65 2.8 S 19 26 10 14 1034.3 1034.5 0.0
27/10:00am 8.8 3.2 3.6 70 2.2 SSW 22 30 12 16 1034.4 1034.6 0.0
27/09:30am 7.9 3.2 3.2 72 2.0 SW 17 22 9 12 1034.0 1034.2 0.0
27/09:00am 6.4 2.3 2.3 75 1.7 WSW 13 22 7 12 1033.8 1034.0 0.0
27/08:30am 4.4 0.7 2.1 85 0.9 WSW 11 15 6 8 1033.3 1033.5 0.0
27/08:00am 2.3 -1.2 1.1 92 0.5 W 9 11 5 6 1033.0 1033.2 0.0
27/07:30am 0.7 -3.4 -0.3 93 0.4 W 11 13 6 7 1032.6 1032.8 0.0
27/07:00am 0.7 -3.4 -0.4 92 0.4 WSW 11 13 6 7 1032.2 1032.4 0.0
27/06:30am 1.0 -3.1 -0.3 91 0.5 WSW 11 13 6 7 1031.7 1031.9 0.0
27/06:00am 1.1 -3.0 -0.2 91 0.5 W 11 11 6 6 1031.4 1031.6 0.0
27/05:30am 1.6 -2.8 0.3 91 0.5 WSW 13 13 7 7 1031.0 1031.1 0.0
27/05:00am 1.5 -2.9 0.2 91 0.5 WSW 13 13 7 7 1030.8 1030.9 0.0
27/04:30am 1.6 -2.8 0.3 91 0.5 WSW 13 13 7 7 1030.4 1030.5 0.0
27/04:00am 1.6 -2.5 0.1 90 0.5 W 11 13 6 7 1030.3 1030.4 0.0
27/03:30am 2.0 -2.4 0.5 90 0.6 WSW 13 13 7 7 1030.1 1030.2 0.0
27/03:00am 2.4 -1.6 0.6 88 0.7 W 11 15 6 8 1029.8 1029.9 0.0
27/02:30am 2.7 -1.7 0.6 86 0.8 WSW 13 13 7 7 1029.4 1029.5 0.0
27/02:00am 3.2 -0.4 0.9 85 0.9 SW 9 11 5 6 1029.1 1029.2 0.0
27/01:30am 3.7 -0.2 1.1 83 1.0 SW 11 13 6 7 1028.9 1029.0 0.0
27/01:00am 4.0 0.2 1.5 84 1.0 SW 11 13 6 7 1028.4 1028.5 0.0
27/12:30am 4.0 -0.2 1.4 83 1.0 WSW 13 15 7 8 1028.2 1028.3 0.0
27/12:00am 3.7 0.6 1.1 83 1.0 W 7 9 4 5 1028.2 1028.3 0.0
 
Date/Time
EST
Temp
°C
App
Temp
°C
Dew
Point
Rel
Hum
%
Delta-T
°C
Wind Press
QNH
hPa
Press
MSL
hPa
Rain
since 9 am
mm
Dir
 
Spd
km/h
Gust
km/h
Spd
kts
Gust
kts
26/11:30pm 4.5 1.0 1.2 79 1.3 SW 9 9 5 5 1027.9 1028.0 0.0
26/11:00pm 5.4 1.9 1.1 74 1.7 SW 9 13 5 7 1028.0 1028.1 0.0
26/10:30pm 6.3 2.4 1.4 71 2.0 SW 11 15 6 8 1027.8 1027.9 0.0
26/10:00pm 7.0 2.8 1.5 68 2.2 SW 13 15 7 8 1027.7 1027.8 0.0
26/09:30pm 8.3 4.5 1.5 62 2.8 SW 11 13 6 7 1027.6 1027.7 0.0
26/09:00pm 10.0 5.8 1.9 57 3.4 SSW 13 15 7 8 1027.2 1027.3 0.0
26/08:30pm 10.6 6.5 2.2 56 3.6 SW 13 17 7 9 1027.1 1027.2 0.0
26/08:00pm 11.5 7.0 2.3 53 3.9 SW 15 19 8 10 1026.5 1026.6 0.0
26/07:30pm 11.8 7.5 3.1 55 3.8 SW 15 20 8 11 1026.1 1026.2 0.0
26/07:00pm 11.9 8.1 3.7 57 3.6 SW 13 17 7 9 1025.5 1025.6 0.0
26/06:30pm 12.0 8.8 5.2 63 3.1 SW 11 15 6 8 1024.9 1025.0 0.0
26/06:00pm 12.4 8.8 5.1 61 3.4 SW 13 20 7 11 1024.5 1024.6 0.0
26/05:30pm 12.7 8.2 6.1 64 3.1 SW 19 28 10 15 1024.3 1024.4 0.0
26/05:00pm 12.9 8.0 6.9 67 2.9 SW 22 30 12 16 1024.1 1024.2 0.0
26/04:30pm 13.4 8.5 7.0 65 3.1 WSW 22 32 12 17 1023.4 1023.6 0.0
26/04:00pm 13.1 8.6 6.9 66 3.0 SW 20 26 11 14 1023.2 1023.4 0.0
26/03:30pm 13.7 8.4 7.0 64 3.3 SW 24 32 13 17 1023.0 1023.2 0.0
26/03:00pm 14.0 10.1 7.1 63 3.4 WSW 17 24 9 13 1022.7 1022.9 0.0

Other Formats:

Comma delimited format used in spreadsheet applications
http://www.bom.gov.au/fwo/IDN60801/IDN60801.95695.axf

JavaScript Object Notation format (JSON) in row-major order
http://www.bom.gov.au/fwo/IDN60801/IDN60801.95695.json